sensor_id;sensor_type;location;lat;lon;timestamp;pressure;altitude;pressure_sealevel;temperature
67501;BMP180;54349;52.528;19.760;2023-03-31T00:01:44;99455.80;;;23.40
67501;BMP180;54349;52.528;19.760;2023-03-31T00:04:12;99459.20;;;23.40
67501;BMP180;54349;52.528;19.760;2023-03-31T00:06:46;99456.40;;;23.40
67501;BMP180;54349;52.528;19.760;2023-03-31T00:09:16;99453.20;;;23.40
67501;BMP180;54349;52.528;19.760;2023-03-31T00:11:51;99454.80;;;23.40
67501;BMP180;54349;52.528;19.760;2023-03-31T00:14:21;99457.20;;;23.30
67501;BMP180;54349;52.528;19.760;2023-03-31T00:16:50;99461.40;;;23.30
67501;BMP180;54349;52.528;19.760;2023-03-31T00:19:18;99453.60;;;23.26
67501;BMP180;54349;52.528;19.760;2023-03-31T00:21:47;99457.60;;;23.20
67501;BMP180;54349;52.528;19.760;2023-03-31T00:24:17;99455.00;;;23.20
67501;BMP180;54349;52.528;19.760;2023-03-31T00:26:46;99460.60;;;23.20
67501;BMP180;54349;52.528;19.760;2023-03-31T00:29:15;99457.80;;;23.10
67501;BMP180;54349;52.528;19.760;2023-03-31T00:31:45;99451.00;;;23.10
67501;BMP180;54349;52.528;19.760;2023-03-31T00:34:13;99453.60;;;23.10
67501;BMP180;54349;52.528;19.760;2023-03-31T00:36:42;99456.00;;;23.10
67501;BMP180;54349;52.528;19.760;2023-03-31T00:39:18;99449.80;;;23.10
67501;BMP180;54349;52.528;19.760;2023-03-31T00:41:49;99452.80;;;23.00
67501;BMP180;54349;52.528;19.760;2023-03-31T00:44:22;99450.20;;;23.00
67501;BMP180;54349;52.528;19.760;2023-03-31T00:47:17;99460.20;;;23.00
67501;BMP180;54349;52.528;19.760;2023-03-31T00:49:53;99457.80;;;22.94
67501;BMP180;54349;52.528;19.760;2023-03-31T00:52:31;99455.40;;;22.90
67501;BMP180;54349;52.528;19.760;2023-03-31T00:55:14;99446.80;;;22.90
67501;BMP180;54349;52.528;19.760;2023-03-31T00:57:46;99450.80;;;22.90
67501;BMP180;54349;52.528;19.760;2023-03-31T01:00:15;99453.00;;;22.90
67501;BMP180;54349;52.528;19.760;2023-03-31T01:02:54;99458.80;;;22.82
67501;BMP180;54349;52.528;19.760;2023-03-31T01:05:34;99447.80;;;22.80
67501;BMP180;54349;52.528;19.760;2023-03-31T01:08:06;99444.40;;;22.80
67501;BMP180;54349;52.528;19.760;2023-03-31T01:10:42;99446.60;;;22.80
67501;BMP180;54349;52.528;19.760;2023-03-31T01:13:14;99442.80;;;22.80
67501;BMP180;54349;52.528;19.760;2023-03-31T01:15:43;99445.20;;;22.74
67501;BMP180;54349;52.528;19.760;2023-03-31T01:18:15;99448.20;;;22.70
67501;BMP180;54349;52.528;19.760;2023-03-31T01:27:17;99449.00;;;22.70
67501;BMP180;54349;52.528;19.760;2023-03-31T01:42:34;99460.00;;;22.60
67501;BMP180;54349;52.528;19.760;2023-03-31T01:45:34;99466.00;;;22.60
67501;BMP180;54349;52.528;19.760;2023-03-31T01:48:13;99461.60;;;22.52
67501;BMP180;54349;52.528;19.760;2023-03-31T01:51:12;99458.20;;;22.50
67501;BMP180;54349;52.528;19.760;2023-03-31T01:54:02;99461.60;;;22.50
67501;BMP180;54349;52.528;19.760;2023-03-31T01:56:44;99468.00;;;22.50
67501;BMP180;54349;52.528;19.760;2023-03-31T01:59:30;99466.60;;;22.50
67501;BMP180;54349;52.528;19.760;2023-03-31T02:02:13;99464.00;;;22.50
67501;BMP180;54349;52.528;19.760;2023-03-31T02:04:58;99464.40;;;22.50
67501;BMP180;54349;52.528;19.760;2023-03-31T02:07:56;99469.80;;;22.50
67501;BMP180;54349;52.528;19.760;2023-03-31T02:10:30;99463.00;;;22.40
67501;BMP180;54349;52.528;19.760;2023-03-31T02:13:02;99463.00;;;22.40
67501;BMP180;54349;52.528;19.760;2023-03-31T02:15:38;99455.40;;;22.40
67501;BMP180;54349;52.528;19.760;2023-03-31T02:18:12;99454.00;;;22.40
67501;BMP180;54349;52.528;19.760;2023-03-31T02:20:48;99445.00;;;22.40
67501;BMP180;54349;52.528;19.760;2023-03-31T02:23:23;99446.20;;;22.40
67501;BMP180;54349;52.528;19.760;2023-03-31T02:26:17;99445.80;;;22.40
67501;BMP180;54349;52.528;19.760;2023-03-31T02:28:50;99453.00;;;22.40
67501;BMP180;54349;52.528;19.760;2023-03-31T02:31:33;99455.40;;;22.40
67501;BMP180;54349;52.528;19.760;2023-03-31T02:34:07;99446.20;;;22.40
67501;BMP180;54349;52.528;19.760;2023-03-31T02:36:37;99446.20;;;22.36
67501;BMP180;54349;52.528;19.760;2023-03-31T02:39:26;99443.40;;;22.34
67501;BMP180;54349;52.528;19.760;2023-03-31T02:41:59;99445.40;;;22.32
67501;BMP180;54349;52.528;19.760;2023-03-31T02:44:37;99446.00;;;22.30
67501;BMP180;54349;52.528;19.760;2023-03-31T02:47:11;99449.80;;;22.30
67501;BMP180;54349;52.528;19.760;2023-03-31T02:49:48;99450.60;;;22.30
67501;BMP180;54349;52.528;19.760;2023-03-31T02:52:39;99454.80;;;22.30
67501;BMP180;54349;52.528;19.760;2023-03-31T02:55:59;99458.20;;;22.30
67501;BMP180;54349;52.528;19.760;2023-03-31T03:01:19;99455.60;;;22.30
67501;BMP180;54349;52.528;19.760;2023-03-31T03:04:10;99455.00;;;22.30
67501;BMP180;54349;52.528;19.760;2023-03-31T03:15:34;99455.60;;;22.28
67501;BMP180;54349;52.528;19.760;2023-03-31T03:18:07;99453.00;;;22.26
67501;BMP180;54349;52.528;19.760;2023-03-31T03:20:36;99452.20;;;22.28
67501;BMP180;54349;52.528;19.760;2023-03-31T03:23:07;99453.20;;;22.20
67501;BMP180;54349;52.528;19.760;2023-03-31T03:25:36;99456.60;;;22.22
67501;BMP180;54349;52.528;19.760;2023-03-31T03:28:08;99449.60;;;22.22
67501;BMP180;54349;52.528;19.760;2023-03-31T03:30:37;99453.40;;;22.30
67501;BMP180;54349;52.528;19.760;2023-03-31T03:33:07;99456.40;;;22.30
67501;BMP180;54349;52.528;19.760;2023-03-31T03:35:37;99447.40;;;22.30
67501;BMP180;54349;52.528;19.760;2023-03-31T03:38:07;99449.80;;;22.30
67501;BMP180;54349;52.528;19.760;2023-03-31T03:40:37;99455.40;;;22.30
67501;BMP180;54349;52.528;19.760;2023-03-31T03:43:06;99454.00;;;22.30
67501;BMP180;54349;52.528;19.760;2023-03-31T03:45:38;99463.40;;;22.30
67501;BMP180;54349;52.528;19.760;2023-03-31T03:48:07;99461.20;;;22.30
67501;BMP180;54349;52.528;19.760;2023-03-31T03:50:45;99456.20;;;22.30
67501;BMP180;54349;52.528;19.760;2023-03-31T03:53:15;99449.80;;;22.30
67501;BMP180;54349;52.528;19.760;2023-03-31T03:55:44;99451.80;;;22.34
67501;BMP180;54349;52.528;19.760;2023-03-31T03:58:13;99451.80;;;22.40
67501;BMP180;54349;52.528;19.760;2023-03-31T04:00:45;99451.00;;;22.40
67501;BMP180;54349;52.528;19.760;2023-03-31T04:03:14;99452.80;;;22.40
67501;BMP180;54349;52.528;19.760;2023-03-31T04:05:47;99453.00;;;22.40
67501;BMP180;54349;52.528;19.760;2023-03-31T04:08:19;99449.40;;;22.40
67501;BMP180;54349;52.528;19.760;2023-03-31T04:10:49;99449.80;;;22.40
67501;BMP180;54349;52.528;19.760;2023-03-31T04:13:18;99446.40;;;22.40
67501;BMP180;54349;52.528;19.760;2023-03-31T04:15:47;99444.60;;;22.40
67501;BMP180;54349;52.528;19.760;2023-03-31T04:18:37;99441.40;;;22.40
67501;BMP180;54349;52.528;19.760;2023-03-31T04:21:14;99438.20;;;22.40
67501;BMP180;54349;52.528;19.760;2023-03-31T04:23:52;99433.20;;;22.40
67501;BMP180;54349;52.528;19.760;2023-03-31T04:26:34;99433.60;;;22.40
67501;BMP180;54349;52.528;19.760;2023-03-31T04:29:13;99430.20;;;22.38
67501;BMP180;54349;52.528;19.760;2023-03-31T04:31:43;99437.00;;;22.34
67501;BMP180;54349;52.528;19.760;2023-03-31T04:34:14;99436.60;;;22.36
67501;BMP180;54349;52.528;19.760;2023-03-31T04:36:46;99435.00;;;22.36
67501;BMP180;54349;52.528;19.760;2023-03-31T04:39:18;99431.60;;;22.38
67501;BMP180;54349;52.528;19.760;2023-03-31T04:41:57;99425.20;;;22.40
67501;BMP180;54349;52.528;19.760;2023-03-31T04:44:28;99427.00;;;22.40
67501;BMP180;54349;52.528;19.760;2023-03-31T04:46:57;99420.20;;;22.40
67501;BMP180;54349;52.528;19.760;2023-03-31T04:49:31;99415.40;;;22.40
67501;BMP180;54349;52.528;19.760;2023-03-31T04:52:00;99416.00;;;22.40
67501;BMP180;54349;52.528;19.760;2023-03-31T04:54:29;99410.00;;;22.40
67501;BMP180;54349;52.528;19.760;2023-03-31T04:56:57;99412.40;;;22.40
67501;BMP180;54349;52.528;19.760;2023-03-31T04:59:26;99414.60;;;22.40
67501;BMP180;54349;52.528;19.760;2023-03-31T05:01:54;99418.20;;;22.40
67501;BMP180;54349;52.528;19.760;2023-03-31T05:04:23;99415.00;;;22.40
67501;BMP180;54349;52.528;19.760;2023-03-31T05:06:55;99410.20;;;22.36
67501;BMP180;54349;52.528;19.760;2023-03-31T05:09:24;99407.40;;;22.34
67501;BMP180;54349;52.528;19.760;2023-03-31T05:11:52;99410.20;;;22.30
67501;BMP180;54349;52.528;19.760;2023-03-31T05:14:21;99400.20;;;22.30
67501;BMP180;54349;52.528;19.760;2023-03-31T05:16:49;99397.40;;;22.30
67501;BMP180;54349;52.528;19.760;2023-03-31T05:19:17;99396.40;;;22.30
67501;BMP180;54349;52.528;19.760;2023-03-31T05:21:46;99408.20;;;22.32
67501;BMP180;54349;52.528;19.760;2023-03-31T05:24:14;99399.80;;;22.30
67501;BMP180;54349;52.528;19.760;2023-03-31T05:26:45;99404.20;;;22.30
67501;BMP180;54349;52.528;19.760;2023-03-31T05:29:22;99403.80;;;22.30
67501;BMP180;54349;52.528;19.760;2023-03-31T05:31:54;99398.60;;;22.30
67501;BMP180;54349;52.528;19.760;2023-03-31T05:34:25;99394.20;;;22.30
67501;BMP180;54349;52.528;19.760;2023-03-31T05:36:53;99396.80;;;22.32
67501;BMP180;54349;52.528;19.760;2023-03-31T05:39:22;99391.60;;;22.32
67501;BMP180;54349;52.528;19.760;2023-03-31T05:41:50;99397.40;;;22.36
67501;BMP180;54349;52.528;19.760;2023-03-31T05:44:18;99390.60;;;22.38
67501;BMP180;54349;52.528;19.760;2023-03-31T05:46:47;99398.20;;;22.40
67501;BMP180;54349;52.528;19.760;2023-03-31T05:49:16;99395.00;;;22.40
67501;BMP180;54349;52.528;19.760;2023-03-31T05:51:44;99392.60;;;22.40
67501;BMP180;54349;52.528;19.760;2023-03-31T05:54:13;99392.20;;;22.40
67501;BMP180;54349;52.528;19.760;2023-03-31T05:56:42;99388.40;;;22.38
67501;BMP180;54349;52.528;19.760;2023-03-31T05:59:11;99385.00;;;22.40
67501;BMP180;54349;52.528;19.760;2023-03-31T06:01:42;99380.60;;;22.40
67501;BMP180;54349;52.528;19.760;2023-03-31T06:04:10;99376.40;;;22.40
67501;BMP180;54349;52.528;19.760;2023-03-31T06:06:40;99371.40;;;22.40
67501;BMP180;54349;52.528;19.760;2023-03-31T06:09:11;99377.60;;;22.40
67501;BMP180;54349;52.528;19.760;2023-03-31T06:11:40;99377.20;;;22.46
67501;BMP180;54349;52.528;19.760;2023-03-31T06:14:08;99373.40;;;22.50
67501;BMP180;54349;52.528;19.760;2023-03-31T06:16:36;99379.00;;;22.50
67501;BMP180;54349;52.528;19.760;2023-03-31T06:19:05;99377.00;;;22.50
67501;BMP180;54349;52.528;19.760;2023-03-31T06:21:34;99374.20;;;22.50
67501;BMP180;54349;52.528;19.760;2023-03-31T06:24:02;99371.20;;;22.60
67501;BMP180;54349;52.528;19.760;2023-03-31T06:26:32;99369.20;;;22.60
67501;BMP180;54349;52.528;19.760;2023-03-31T06:29:02;99371.60;;;22.60
67501;BMP180;54349;52.528;19.760;2023-03-31T06:31:30;99366.00;;;22.60
67501;BMP180;54349;52.528;19.760;2023-03-31T06:33:59;99363.20;;;22.70
67501;BMP180;54349;52.528;19.760;2023-03-31T06:36:27;99365.60;;;22.70
67501;BMP180;54349;52.528;19.760;2023-03-31T06:38:56;99370.80;;;22.70
67501;BMP180;54349;52.528;19.760;2023-03-31T06:41:24;99380.80;;;22.70
67501;BMP180;54349;52.528;19.760;2023-03-31T06:43:53;99380.60;;;22.76
67501;BMP180;54349;52.528;19.760;2023-03-31T06:46:23;99378.00;;;22.80
67501;BMP180;54349;52.528;19.760;2023-03-31T06:48:55;99377.00;;;22.80
67501;BMP180;54349;52.528;19.760;2023-03-31T06:51:28;99369.60;;;22.80
67501;BMP180;54349;52.528;19.760;2023-03-31T06:54:01;99371.40;;;22.88
67501;BMP180;54349;52.528;19.760;2023-03-31T06:56:30;99369.20;;;22.90
67501;BMP180;54349;52.528;19.760;2023-03-31T06:58:59;99366.80;;;22.90
67501;BMP180;54349;52.528;19.760;2023-03-31T07:01:27;99364.40;;;22.90
67501;BMP180;54349;52.528;19.760;2023-03-31T07:03:55;99369.60;;;22.90
67501;BMP180;54349;52.528;19.760;2023-03-31T07:06:24;99371.00;;;22.90
67501;BMP180;54349;52.528;19.760;2023-03-31T07:08:52;99373.60;;;22.94
67501;BMP180;54349;52.528;19.760;2023-03-31T07:11:20;99370.80;;;23.00
67501;BMP180;54349;52.528;19.760;2023-03-31T07:13:48;99375.80;;;23.00
67501;BMP180;54349;52.528;19.760;2023-03-31T07:16:17;99373.20;;;23.00
67501;BMP180;54349;52.528;19.760;2023-03-31T07:18:45;99369.40;;;23.00
67501;BMP180;54349;52.528;19.760;2023-03-31T07:21:14;99367.40;;;23.08
67501;BMP180;54349;52.528;19.760;2023-03-31T07:23:42;99361.40;;;23.10
67501;BMP180;54349;52.528;19.760;2023-03-31T07:26:13;99364.80;;;23.10
67501;BMP180;54349;52.528;19.760;2023-03-31T07:28:41;99363.80;;;23.10
67501;BMP180;54349;52.528;19.760;2023-03-31T07:31:12;99364.20;;;23.10
67501;BMP180;54349;52.528;19.760;2023-03-31T07:33:41;99362.20;;;23.16
67501;BMP180;54349;52.528;19.760;2023-03-31T07:36:09;99356.00;;;23.20
67501;BMP180;54349;52.528;19.760;2023-03-31T07:38:44;99349.40;;;23.20
67501;BMP180;54349;52.528;19.760;2023-03-31T07:41:17;99351.40;;;23.20
67501;BMP180;54349;52.528;19.760;2023-03-31T07:43:49;99350.20;;;23.20
67501;BMP180;54349;52.528;19.760;2023-03-31T07:46:38;99345.80;;;23.24
67501;BMP180;54349;52.528;19.760;2023-03-31T07:49:06;99349.00;;;23.30
67501;BMP180;54349;52.528;19.760;2023-03-31T07:51:36;99350.60;;;23.30
67501;BMP180;54349;52.528;19.760;2023-03-31T07:54:06;99346.80;;;23.30
67501;BMP180;54349;52.528;19.760;2023-03-31T07:56:36;99345.20;;;23.30
67501;BMP180;54349;52.528;19.760;2023-03-31T07:59:04;99343.80;;;23.40
67501;BMP180;54349;52.528;19.760;2023-03-31T08:01:32;99342.20;;;23.40
67501;BMP180;54349;52.528;19.760;2023-03-31T08:04:01;99336.80;;;23.40
67501;BMP180;54349;52.528;19.760;2023-03-31T08:06:32;99327.80;;;23.40
67501;BMP180;54349;52.528;19.760;2023-03-31T08:09:03;99327.60;;;23.40
67501;BMP180;54349;52.528;19.760;2023-03-31T08:11:32;99326.20;;;23.50
67501;BMP180;54349;52.528;19.760;2023-03-31T08:14:03;99321.80;;;23.50
67501;BMP180;54349;52.528;19.760;2023-03-31T08:16:32;99320.20;;;23.50
67501;BMP180;54349;52.528;19.760;2023-03-31T08:19:01;99315.80;;;23.50
67501;BMP180;54349;52.528;19.760;2023-03-31T08:21:32;99318.20;;;23.50
67501;BMP180;54349;52.528;19.760;2023-03-31T08:24:00;99311.00;;;23.54
67501;BMP180;54349;52.528;19.760;2023-03-31T08:26:28;99319.40;;;23.60
67501;BMP180;54349;52.528;19.760;2023-03-31T08:28:59;99324.60;;;23.60
67501;BMP180;54349;52.528;19.760;2023-03-31T08:31:27;99319.60;;;23.60
67501;BMP180;54349;52.528;19.760;2023-03-31T08:33:58;99317.40;;;23.60
67501;BMP180;54349;52.528;19.760;2023-03-31T08:36:26;99317.00;;;23.60
67501;BMP180;54349;52.528;19.760;2023-03-31T08:38:55;99316.20;;;23.66
67501;BMP180;54349;52.528;19.760;2023-03-31T08:41:55;99311.60;;;23.70
67501;BMP180;54349;52.528;19.760;2023-03-31T08:44:45;99312.40;;;23.70
67501;BMP180;54349;52.528;19.760;2023-03-31T08:47:21;99314.40;;;23.70
67501;BMP180;54349;52.528;19.760;2023-03-31T08:50:15;99313.80;;;23.70
67501;BMP180;54349;52.528;19.760;2023-03-31T08:52:56;99311.80;;;23.70
67501;BMP180;54349;52.528;19.760;2023-03-31T08:55:47;99306.80;;;23.70
67501;BMP180;54349;52.528;19.760;2023-03-31T09:06:57;99315.40;;;23.74
67501;BMP180;54349;52.528;19.760;2023-03-31T09:12:47;99307.00;;;23.80
67501;BMP180;54349;52.528;19.760;2023-03-31T09:21:26;99287.60;;;23.80
67501;BMP180;54349;52.528;19.760;2023-03-31T09:27:01;99282.40;;;23.80
67501;BMP180;54349;52.528;19.760;2023-03-31T09:30:16;99281.80;;;23.80
67501;BMP180;54349;52.528;19.760;2023-03-31T09:35:32;99278.80;;;23.90
67501;BMP180;54349;52.528;19.760;2023-03-31T09:38:01;99275.40;;;23.90
67501;BMP180;54349;52.528;19.760;2023-03-31T09:40:29;99272.00;;;23.90
67501;BMP180;54349;52.528;19.760;2023-03-31T09:43:06;99267.00;;;23.90
67501;BMP180;54349;52.528;19.760;2023-03-31T09:45:35;99270.20;;;23.90
67501;BMP180;54349;52.528;19.760;2023-03-31T09:48:12;99272.80;;;23.90
67501;BMP180;54349;52.528;19.760;2023-03-31T09:51:06;99269.20;;;23.90
67501;BMP180;54349;52.528;19.760;2023-03-31T09:54:06;99265.00;;;23.92
67501;BMP180;54349;52.528;19.760;2023-03-31T09:56:46;99262.00;;;24.00
67501;BMP180;54349;52.528;19.760;2023-03-31T09:59:30;99255.60;;;24.00
67501;BMP180;54349;52.528;19.760;2023-03-31T10:02:05;99254.00;;;24.00
67501;BMP180;54349;52.528;19.760;2023-03-31T10:04:45;99251.00;;;24.00
67501;BMP180;54349;52.528;19.760;2023-03-31T10:07:21;99249.20;;;24.00
67501;BMP180;54349;52.528;19.760;2023-03-31T10:09:54;99252.00;;;24.00
67501;BMP180;54349;52.528;19.760;2023-03-31T10:12:30;99239.80;;;24.00
67501;BMP180;54349;52.528;19.760;2023-03-31T10:15:18;99236.00;;;24.00
67501;BMP180;54349;52.528;19.760;2023-03-31T10:17:48;99235.00;;;24.00
67501;BMP180;54349;52.528;19.760;2023-03-31T10:20:36;99232.80;;;24.00
67501;BMP180;54349;52.528;19.760;2023-03-31T10:23:23;99231.60;;;24.00
67501;BMP180;54349;52.528;19.760;2023-03-31T10:25:54;99223.00;;;24.00
67501;BMP180;54349;52.528;19.760;2023-03-31T10:28:26;99222.80;;;24.00
67501;BMP180;54349;52.528;19.760;2023-03-31T10:30:58;99220.00;;;24.00
67501;BMP180;54349;52.528;19.760;2023-03-31T10:33:33;99219.60;;;24.00
67501;BMP180;54349;52.528;19.760;2023-03-31T10:36:20;99216.40;;;24.00
67501;BMP180;54349;52.528;19.760;2023-03-31T10:38:52;99210.60;;;24.00
67501;BMP180;54349;52.528;19.760;2023-03-31T10:41:29;99213.40;;;24.00
67501;BMP180;54349;52.528;19.760;2023-03-31T10:44:01;99213.60;;;24.00
67501;BMP180;54349;52.528;19.760;2023-03-31T10:46:46;99211.40;;;24.00
67501;BMP180;54349;52.528;19.760;2023-03-31T10:51:58;99200.80;;;24.02
67501;BMP180;54349;52.528;19.760;2023-03-31T10:54:31;99198.00;;;24.06
67501;BMP180;54349;52.528;19.760;2023-03-31T10:57:01;99195.20;;;24.06
67501;BMP180;54349;52.528;19.760;2023-03-31T11:00:10;99193.00;;;24.10
67501;BMP180;54349;52.528;19.760;2023-03-31T11:12:11;99179.60;;;24.10
67501;BMP180;54349;52.528;19.760;2023-03-31T11:17:34;99168.20;;;24.10
67501;BMP180;54349;52.528;19.760;2023-03-31T11:20:18;99171.00;;;24.10
67501;BMP180;54349;52.528;19.760;2023-03-31T11:38:17;99148.40;;;24.20
67501;BMP180;54349;52.528;19.760;2023-03-31T11:43:38;99145.20;;;24.20
67501;BMP180;54349;52.528;19.760;2023-03-31T11:49:23;99130.60;;;24.20
67501;BMP180;54349;52.528;19.760;2023-03-31T11:52:00;99129.80;;;24.20
67501;BMP180;54349;52.528;19.760;2023-03-31T11:54:37;99127.60;;;24.20
67501;BMP180;54349;52.528;19.760;2023-03-31T11:57:39;99130.20;;;24.20
67501;BMP180;54349;52.528;19.760;2023-03-31T12:00:19;99124.40;;;24.20
67501;BMP180;54349;52.528;19.760;2023-03-31T12:03:18;99123.40;;;24.20
67501;BMP180;54349;52.528;19.760;2023-03-31T12:05:58;99113.40;;;24.20
67501;BMP180;54349;52.528;19.760;2023-03-31T12:08:44;99116.60;;;24.20
67501;BMP180;54349;52.528;19.760;2023-03-31T12:11:33;99111.60;;;24.20
67501;BMP180;54349;52.528;19.760;2023-03-31T12:14:32;99108.80;;;24.20
67501;BMP180;54349;52.528;19.760;2023-03-31T12:19:52;99100.60;;;24.20
67501;BMP180;54349;52.528;19.760;2023-03-31T12:22:31;99097.60;;;24.20
67501;BMP180;54349;52.528;19.760;2023-03-31T12:25:01;99095.00;;;24.20
67501;BMP180;54349;52.528;19.760;2023-03-31T12:27:38;99092.40;;;24.20
67501;BMP180;54349;52.528;19.760;2023-03-31T12:30:16;99086.00;;;24.20
67501;BMP180;54349;52.528;19.760;2023-03-31T12:32:55;99078.40;;;24.20
67501;BMP180;54349;52.528;19.760;2023-03-31T12:39:09;99074.60;;;24.26
67501;BMP180;54349;52.528;19.760;2023-03-31T12:45:23;99068.00;;;24.30
67501;BMP180;54349;52.528;19.760;2023-03-31T12:48:38;99067.80;;;24.32
67501;BMP180;54349;52.528;19.760;2023-03-31T12:59:32;99058.20;;;24.50
67501;BMP180;54349;52.528;19.760;2023-03-31T13:04:43;99055.20;;;24.58
67501;BMP180;54349;52.528;19.760;2023-03-31T13:07:37;99048.00;;;24.60
67501;BMP180;54349;52.528;19.760;2023-03-31T13:12:41;99035.80;;;24.60
67501;BMP180;54349;52.528;19.760;2023-03-31T13:15:23;99035.40;;;24.60
67501;BMP180;54349;52.528;19.760;2023-03-31T13:18:04;99030.00;;;24.66
67501;BMP180;54349;52.528;19.760;2023-03-31T13:20:36;99029.20;;;24.70
67501;BMP180;54349;52.528;19.760;2023-03-31T13:23:20;99027.20;;;24.70
67501;BMP180;54349;52.528;19.760;2023-03-31T13:25:52;99023.00;;;24.78
67501;BMP180;54349;52.528;19.760;2023-03-31T13:31:03;99016.60;;;24.80
67501;BMP180;54349;52.528;19.760;2023-03-31T13:33:57;99015.40;;;24.80
67501;BMP180;54349;52.528;19.760;2023-03-31T13:39:45;99002.20;;;24.80
67501;BMP180;54349;52.528;19.760;2023-03-31T13:49:32;98988.80;;;24.90
67501;BMP180;54349;52.528;19.760;2023-03-31T13:52:10;98985.60;;;24.90
67501;BMP180;54349;52.528;19.760;2023-03-31T13:55:15;98978.00;;;24.90
67501;BMP180;54349;52.528;19.760;2023-03-31T14:09:05;98952.40;;;25.00
67501;BMP180;54349;52.528;19.760;2023-03-31T14:11:35;98950.60;;;25.00
67501;BMP180;54349;52.528;19.760;2023-03-31T14:14:12;98952.00;;;25.00
67501;BMP180;54349;52.528;19.760;2023-03-31T14:16:55;98951.40;;;25.00
67501;BMP180;54349;52.528;19.760;2023-03-31T14:23:07;98949.40;;;25.10
67501;BMP180;54349;52.528;19.760;2023-03-31T14:25:57;98944.20;;;25.10
67501;BMP180;54349;52.528;19.760;2023-03-31T14:29:05;98938.20;;;25.10
67501;BMP180;54349;52.528;19.760;2023-03-31T14:32:18;98935.20;;;25.10
67501;BMP180;54349;52.528;19.760;2023-03-31T14:37:26;98926.80;;;25.10
67501;BMP180;54349;52.528;19.760;2023-03-31T14:39:57;98924.80;;;25.10
67501;BMP180;54349;52.528;19.760;2023-03-31T14:42:37;98922.80;;;25.10
67501;BMP180;54349;52.528;19.760;2023-03-31T14:45:22;98916.40;;;25.10
67501;BMP180;54349;52.528;19.760;2023-03-31T14:48:11;98912.00;;;25.10
67501;BMP180;54349;52.528;19.760;2023-03-31T14:50:45;98905.40;;;25.10
67501;BMP180;54349;52.528;19.760;2023-03-31T14:53:16;98904.40;;;25.10
67501;BMP180;54349;52.528;19.760;2023-03-31T14:55:45;98900.60;;;25.10
67501;BMP180;54349;52.528;19.760;2023-03-31T14:58:31;98896.00;;;25.10
67501;BMP180;54349;52.528;19.760;2023-03-31T15:01:05;98896.00;;;25.10
67501;BMP180;54349;52.528;19.760;2023-03-31T15:03:39;98887.80;;;25.10
67501;BMP180;54349;52.528;19.760;2023-03-31T15:06:09;98887.60;;;25.10
67501;BMP180;54349;52.528;19.760;2023-03-31T15:08:38;98884.80;;;25.10
67501;BMP180;54349;52.528;19.760;2023-03-31T15:11:16;98877.80;;;25.10
67501;BMP180;54349;52.528;19.760;2023-03-31T15:13:51;98874.40;;;25.10
67501;BMP180;54349;52.528;19.760;2023-03-31T15:16:43;98866.20;;;25.10
67501;BMP180;54349;52.528;19.760;2023-03-31T15:19:27;98862.40;;;25.08
67501;BMP180;54349;52.528;19.760;2023-03-31T15:22:13;98866.40;;;25.02
67501;BMP180;54349;52.528;19.760;2023-03-31T15:24:44;98862.80;;;25.00
67501;BMP180;54349;52.528;19.760;2023-03-31T15:27:21;98858.80;;;25.00
67501;BMP180;54349;52.528;19.760;2023-03-31T15:30:14;98855.00;;;25.00
67501;BMP180;54349;52.528;19.760;2023-03-31T15:32:44;98852.00;;;25.00
67501;BMP180;54349;52.528;19.760;2023-03-31T15:35:28;98848.00;;;25.00
67501;BMP180;54349;52.528;19.760;2023-03-31T15:37:59;98845.20;;;25.00
67501;BMP180;54349;52.528;19.760;2023-03-31T15:40:31;98841.80;;;25.00
67501;BMP180;54349;52.528;19.760;2023-03-31T15:43:17;98845.00;;;25.00
67501;BMP180;54349;52.528;19.760;2023-03-31T15:45:54;98841.60;;;25.00
67501;BMP180;54349;52.528;19.760;2023-03-31T15:48:33;98839.40;;;25.00
67501;BMP180;54349;52.528;19.760;2023-03-31T15:51:28;98836.00;;;24.94
67501;BMP180;54349;52.528;19.760;2023-03-31T15:53:58;98833.20;;;24.90
67501;BMP180;54349;52.528;19.760;2023-03-31T15:59:04;98832.40;;;24.90
67501;BMP180;54349;52.528;19.760;2023-03-31T16:01:42;98829.20;;;24.90
67501;BMP180;54349;52.528;19.760;2023-03-31T16:04:15;98824.60;;;24.90
67501;BMP180;54349;52.528;19.760;2023-03-31T16:07:04;98826.80;;;24.90
67501;BMP180;54349;52.528;19.760;2023-03-31T16:12:56;98825.00;;;24.84
67501;BMP180;54349;52.528;19.760;2023-03-31T16:15:15;98827.40;;;24.80
67501;BMP180;54349;52.528;19.760;2023-03-31T16:17:48;98827.00;;;24.80
67501;BMP180;54349;52.528;19.760;2023-03-31T16:20:32;98830.20;;;24.80
67501;BMP180;54349;52.528;19.760;2023-03-31T16:23:20;98830.40;;;24.80
67501;BMP180;54349;52.528;19.760;2023-03-31T16:25:51;98832.20;;;24.80
67501;BMP180;54349;52.528;19.760;2023-03-31T16:28:24;98829.40;;;24.80
67501;BMP180;54349;52.528;19.760;2023-03-31T16:30:54;98826.80;;;24.80
67501;BMP180;54349;52.528;19.760;2023-03-31T16:33:23;98829.60;;;24.78
67501;BMP180;54349;52.528;19.760;2023-03-31T16:35:54;98828.80;;;24.72
67501;BMP180;54349;52.528;19.760;2023-03-31T16:38:28;98829.80;;;24.70
67501;BMP180;54349;52.528;19.760;2023-03-31T16:40:57;98835.20;;;24.70
67501;BMP180;54349;52.528;19.760;2023-03-31T16:43:29;98842.80;;;24.70
67501;BMP180;54349;52.528;19.760;2023-03-31T16:46:01;98845.20;;;24.70
67501;BMP180;54349;52.528;19.760;2023-03-31T16:48:33;98849.00;;;24.62
67501;BMP180;54349;52.528;19.760;2023-03-31T16:51:02;98849.60;;;24.60
67501;BMP180;54349;52.528;19.760;2023-03-31T16:53:33;98846.00;;;24.60
67501;BMP180;54349;52.528;19.760;2023-03-31T16:56:06;98841.80;;;24.60
67501;BMP180;54349;52.528;19.760;2023-03-31T16:58:37;98840.20;;;24.60
67501;BMP180;54349;52.528;19.760;2023-03-31T17:01:08;98841.40;;;24.60
67501;BMP180;54349;52.528;19.760;2023-03-31T17:03:37;98842.40;;;24.52
67501;BMP180;54349;52.528;19.760;2023-03-31T17:06:11;98840.80;;;24.50
67501;BMP180;54349;52.528;19.760;2023-03-31T17:08:40;98847.00;;;24.50
67501;BMP180;54349;52.528;19.760;2023-03-31T17:11:11;98843.80;;;24.50
67501;BMP180;54349;52.528;19.760;2023-03-31T17:13:42;98840.60;;;24.50